createdAt,value
2022-08-28T00:02:24.680Z,7.10
2022-08-28T00:04:51.802Z,6.72
2022-08-28T00:07:18.643Z,7.20
2022-08-28T00:09:45.297Z,6.57
2022-08-28T00:12:12.480Z,6.53
2022-08-28T00:14:39.277Z,6.85
2022-08-28T00:17:06.144Z,5.68
2022-08-28T00:19:35.510Z,6.00
2022-08-28T00:22:06.360Z,5.35
2022-08-28T00:24:33.864Z,6.22
2022-08-28T00:27:18.589Z,5.68
2022-08-28T00:29:45.285Z,5.45
2022-08-28T00:32:11.830Z,5.13
2022-08-28T00:34:38.909Z,5.75
2022-08-28T00:37:05.938Z,5.68
2022-08-28T00:39:32.637Z,5.70
2022-08-28T00:41:59.244Z,5.82
2022-08-28T00:44:28.705Z,5.53
2022-08-28T00:46:57.370Z,6.03
2022-08-28T00:49:27.462Z,5.63
2022-08-28T00:52:12.746Z,4.95
2022-08-28T00:54:39.162Z,4.80
2022-08-28T00:57:09.892Z,5.05
2022-08-28T00:59:36.577Z,5.63
2022-08-28T01:02:03.945Z,5.07
2022-08-28T01:04:32.722Z,4.88
2022-08-28T01:10:51.453Z,5.55
2022-08-28T01:13:18.999Z,5.90
2022-08-28T01:15:46.071Z,6.03
2022-08-28T01:18:17.685Z,5.82
2022-08-28T01:23:49.449Z,6.53
2022-08-28T01:26:15.936Z,7.95
2022-08-28T01:28:42.411Z,7.97
2022-08-28T01:31:11.696Z,7.53
2022-08-28T01:33:42.609Z,8.35
2022-08-28T01:36:12.011Z,7.03
2022-08-28T01:38:40.725Z,7.47
2022-08-28T01:41:07.366Z,8.00
2022-08-28T01:43:34.123Z,8.43
2022-08-28T01:46:04.547Z,8.23
2022-08-28T01:48:36.213Z,8.65
2022-08-28T01:53:32.514Z,8.85
2022-08-28T01:56:04.496Z,8.90
2022-08-28T01:58:36.045Z,8.95
2022-08-28T02:01:08.620Z,8.27
2022-08-28T02:03:35.113Z,8.70
2022-08-28T02:06:01.736Z,9.10
2022-08-28T02:08:28.224Z,8.80
2022-08-28T02:10:54.691Z,8.43
2022-08-28T02:13:22.226Z,8.13
2022-08-28T02:15:52.318Z,8.88
2022-08-28T02:18:18.945Z,8.57
2022-08-28T02:20:45.443Z,8.68
2022-08-28T02:23:12.610Z,7.70
2022-08-28T02:25:39.543Z,8.63
2022-08-28T02:28:06.106Z,7.82
2022-08-28T02:30:33.094Z,7.43
2022-08-28T02:32:59.665Z,7.03
2022-08-28T02:35:26.141Z,7.47
2022-08-28T02:37:54.563Z,6.32
2022-08-28T02:40:24.601Z,6.65
2022-08-28T02:42:52.111Z,5.75
2022-08-28T02:45:19.918Z,6.43
2022-08-28T02:47:47.923Z,6.13
2022-08-28T02:50:17.193Z,5.95
2022-08-28T02:52:44.019Z,5.88
2022-08-28T02:55:12.406Z,5.93
2022-08-28T02:57:38.938Z,5.60
2022-08-28T03:00:08.148Z,5.60
2022-08-28T03:02:34.719Z,6.15
2022-08-28T03:05:01.273Z,6.53
2022-08-28T03:07:29.210Z,5.45
2022-08-28T03:09:56.059Z,5.95
2022-08-28T03:12:25.767Z,5.47
2022-08-28T03:14:54.253Z,5.25
2022-08-28T03:17:22.150Z,5.32
2022-08-28T03:19:50.194Z,4.90
2022-08-28T03:22:39.463Z,4.85
2022-08-28T03:25:07.049Z,5.68
2022-08-28T03:27:33.982Z,5.00
2022-08-28T03:30:01.842Z,5.00
2022-08-28T03:32:29.448Z,5.03
2022-08-28T03:34:55.938Z,4.95
2022-08-28T03:37:22.456Z,5.20
2022-08-28T03:39:49.233Z,4.68
2022-08-28T03:42:15.812Z,4.68
2022-08-28T03:44:42.262Z,4.65
2022-08-28T03:47:09.067Z,4.65
2022-08-28T03:49:36.689Z,4.75
2022-08-28T03:52:04.050Z,5.18
2022-08-28T03:54:31.614Z,4.88
2022-08-28T03:56:58.748Z,4.53
2022-08-28T03:59:26.697Z,4.70
2022-08-28T04:01:58.176Z,4.10
2022-08-28T04:04:24.623Z,4.57
2022-08-28T04:06:51.085Z,7.15
2022-08-28T04:09:17.548Z,6.35
2022-08-28T04:11:44.032Z,5.43
2022-08-28T04:14:12.532Z,5.00
2022-08-28T04:16:39.211Z,4.15
2022-08-28T04:19:05.899Z,4.32
2022-08-28T04:21:32.403Z,4.10
2022-08-28T04:23:59.021Z,4.10
2022-08-28T04:26:27.108Z,3.95
2022-08-28T04:28:55.278Z,4.43
2022-08-28T04:31:32.158Z,4.18
2022-08-28T04:34:01.762Z,5.05
2022-08-28T04:36:28.919Z,4.97
2022-08-28T04:38:57.682Z,4.53
2022-08-28T04:41:24.182Z,4.88
2022-08-28T04:43:52.742Z,4.60
2022-08-28T04:46:19.574Z,4.53
2022-08-28T04:48:46.132Z,4.20
2022-08-28T04:51:15.056Z,3.72
2022-08-28T04:53:42.419Z,3.97
2022-08-28T04:56:11.682Z,4.20
2022-08-28T04:58:39.553Z,3.92
2022-08-28T05:01:09.216Z,4.40
2022-08-28T05:03:35.801Z,3.63
2022-08-28T05:06:03.617Z,4.07
2022-08-28T05:08:31.323Z,3.67
2022-08-28T05:10:58.937Z,3.97
2022-08-28T05:13:25.665Z,3.67
2022-08-28T05:15:52.535Z,4.70
2022-08-28T05:18:22.221Z,4.50
2022-08-28T05:20:49.010Z,4.05
2022-08-28T05:23:16.567Z,4.40
2022-08-28T05:25:46.402Z,4.15
2022-08-28T05:28:14.633Z,4.13
2022-08-28T05:30:41.997Z,4.05
2022-08-28T05:33:09.675Z,3.42
2022-08-28T05:35:38.584Z,4.03
2022-08-28T05:38:06.251Z,4.47
2022-08-28T05:40:33.848Z,4.13
2022-08-28T05:43:00.426Z,4.50
2022-08-28T05:45:26.934Z,4.55
2022-08-28T05:47:54.041Z,4.68
2022-08-28T05:50:20.607Z,4.68
2022-08-28T05:52:47.434Z,4.05
2022-08-28T05:55:14.011Z,4.35
2022-08-28T05:57:41.398Z,4.97
2022-08-28T06:00:12.630Z,4.63
2022-08-28T06:02:40.532Z,4.57
2022-08-28T06:05:07.699Z,4.10
2022-08-28T06:07:34.967Z,4.65
2022-08-28T06:10:01.722Z,3.90
2022-08-28T06:12:28.192Z,4.20
2022-08-28T06:14:54.798Z,4.65
2022-08-28T06:17:23.862Z,5.07
2022-08-28T06:19:50.943Z,4.70
2022-08-28T06:22:18.434Z,5.93
2022-08-28T06:24:44.938Z,4.82
2022-08-28T06:27:11.464Z,4.88
2022-08-28T06:29:37.992Z,4.40
2022-08-28T06:32:04.737Z,4.28
2022-08-28T06:34:31.461Z,5.03
2022-08-28T06:36:57.953Z,5.47
2022-08-28T06:39:24.512Z,4.85
2022-08-28T06:41:51.033Z,5.18
2022-08-28T06:44:19.934Z,4.90
2022-08-28T06:46:51.672Z,5.20
2022-08-28T06:49:18.599Z,5.15
2022-08-28T06:51:45.152Z,4.65
2022-08-28T06:54:11.792Z,5.55
2022-08-28T06:56:38.561Z,4.95
2022-08-28T06:59:05.121Z,5.13
2022-08-28T07:01:35.046Z,4.82
2022-08-28T07:04:07.673Z,5.32
2022-08-28T07:06:39.403Z,6.03
2022-08-28T07:09:09.501Z,4.45
2022-08-28T07:11:36.952Z,6.38
2022-08-28T07:14:04.481Z,4.70
2022-08-28T07:16:34.957Z,4.90
2022-08-28T07:19:04.757Z,4.65
2022-08-28T07:21:33.241Z,4.55
2022-08-28T07:24:06.386Z,5.25
2022-08-28T07:26:32.886Z,4.97
2022-08-28T07:29:10.898Z,4.80
2022-08-28T07:31:41.030Z,4.72
2022-08-28T07:34:09.176Z,5.30
2022-08-28T07:36:35.948Z,4.90
2022-08-28T07:39:02.889Z,4.80
2022-08-28T07:41:32.169Z,4.85
2022-08-28T07:44:17.948Z,4.72
2022-08-28T07:46:45.769Z,5.38
2022-08-28T07:49:15.521Z,4.85
2022-08-28T07:51:41.974Z,4.75
2022-08-28T07:54:11.215Z,4.60
2022-08-28T07:56:43.657Z,4.35
2022-08-28T07:59:11.648Z,4.68
2022-08-28T08:01:44.087Z,4.15
2022-08-28T08:04:13.232Z,5.63
2022-08-28T08:06:41.196Z,4.90
2022-08-28T08:09:09.675Z,4.70
2022-08-28T08:11:36.218Z,5.13
2022-08-28T08:14:04.852Z,4.53
2022-08-28T08:16:35.517Z,5.00
2022-08-28T08:19:02.624Z,4.30
2022-08-28T08:21:30.577Z,4.47
2022-08-28T08:23:58.300Z,3.92
2022-08-28T08:26:28.105Z,4.60
2022-08-28T08:28:55.939Z,3.83
2022-08-28T08:31:26.670Z,4.35
2022-08-28T08:33:56.551Z,4.28
2022-08-28T08:36:25.269Z,4.28
2022-08-28T08:38:59.376Z,4.68
2022-08-28T08:41:33.768Z,4.20
2022-08-28T08:44:17.739Z,3.97
2022-08-28T08:47:03.518Z,5.00
2022-08-28T08:49:35.904Z,5.78
2022-08-28T08:52:05.309Z,4.57
2022-08-28T08:54:32.050Z,5.13
2022-08-28T08:57:02.213Z,4.55
2022-08-28T08:59:33.344Z,4.20
2022-08-28T09:02:10.521Z,4.65
2022-08-28T09:05:01.614Z,4.38
2022-08-28T09:07:37.993Z,4.25
2022-08-28T09:10:08.454Z,3.85
2022-08-28T09:13:12.643Z,4.78
2022-08-28T09:15:42.622Z,4.60
2022-08-28T09:18:18.173Z,4.93
2022-08-28T09:20:50.050Z,4.78
2022-08-28T09:23:16.549Z,4.00
2022-08-28T09:26:01.743Z,4.80
2022-08-28T09:28:37.035Z,4.85
2022-08-28T09:31:13.335Z,5.28
2022-08-28T09:33:43.113Z,4.30
2022-08-28T09:36:23.287Z,5.00
2022-08-28T09:39:14.742Z,4.63
2022-08-28T09:42:11.113Z,4.82
2022-08-28T09:45:09.037Z,4.78
2022-08-28T09:47:46.369Z,4.78
2022-08-28T09:50:30.337Z,4.32
2022-08-28T09:53:19.302Z,4.53
2022-08-28T09:56:10.996Z,5.28
2022-08-28T09:58:57.197Z,5.13
2022-08-28T10:01:29.399Z,5.00
2022-08-28T10:04:22.441Z,5.18
2022-08-28T10:06:51.975Z,5.50
2022-08-28T10:09:39.462Z,5.88
2022-08-28T10:12:40.183Z,5.28
2022-08-28T10:15:14.967Z,5.75
2022-08-28T10:18:06.665Z,5.53
2022-08-28T10:20:50.191Z,6.07
2022-08-28T10:23:42.650Z,5.90
2022-08-28T10:26:21.565Z,6.18
2022-08-28T10:29:18.710Z,6.75
2022-08-28T10:31:55.309Z,6.47
2022-08-28T10:34:30.731Z,5.93
2022-08-28T10:37:10.098Z,6.03
2022-08-28T10:39:53.742Z,6.47
2022-08-28T10:42:59.216Z,4.90
2022-08-28T10:45:26.250Z,6.60
2022-08-28T10:47:58.803Z,5.38
2022-08-28T10:50:30.057Z,6.28
2022-08-28T10:53:17.187Z,5.60
2022-08-28T10:55:49.870Z,6.22
2022-08-28T10:58:25.078Z,5.78
2022-08-28T11:00:56.174Z,5.32
2022-08-28T11:03:35.522Z,6.00
2022-08-28T11:06:11.327Z,5.13
2022-08-28T11:08:39.681Z,5.43
2022-08-28T11:11:13.297Z,6.32
2022-08-28T11:13:45.885Z,6.10
2022-08-28T11:16:23.403Z,6.23
2022-08-28T11:19:04.479Z,6.32
2022-08-28T11:21:41.195Z,6.70
2022-08-28T11:24:21.337Z,6.85
2022-08-28T11:27:00.430Z,6.20
2022-08-28T11:29:57.943Z,6.30
2022-08-28T11:32:33.707Z,5.75
2022-08-28T11:35:02.983Z,6.70
2022-08-28T11:37:40.506Z,6.88
2022-08-28T11:40:28.525Z,6.72
2022-08-28T11:43:16.932Z,7.03
2022-08-28T11:45:46.820Z,6.57
2022-08-28T11:48:36.305Z,5.68
2022-08-28T11:51:17.718Z,6.35
2022-08-28T11:54:03.873Z,6.07
2022-08-28T11:56:50.307Z,6.20
2022-08-28T11:59:22.883Z,7.05
2022-08-28T12:01:49.831Z,6.50
2022-08-28T12:04:20.106Z,6.28
2022-08-28T12:06:54.833Z,6.22
2022-08-28T12:09:40.229Z,5.50
2022-08-28T12:12:21.867Z,6.82
2022-08-28T12:14:48.288Z,6.13
2022-08-28T12:17:15.207Z,6.82
2022-08-28T12:19:51.169Z,5.88
2022-08-28T12:22:25.102Z,6.68
2022-08-28T12:25:01.170Z,6.95
2022-08-28T12:27:28.792Z,6.50
2022-08-28T12:29:57.630Z,5.57
2022-08-28T12:32:33.140Z,5.70
2022-08-28T12:34:59.591Z,5.50
2022-08-28T12:37:50.823Z,5.70
2022-08-28T12:40:50.151Z,5.75
2022-08-28T12:43:40.912Z,5.95
2022-08-28T12:46:19.979Z,4.72
2022-08-28T12:48:52.328Z,5.55
2022-08-28T12:51:25.354Z,6.03
2022-08-28T12:53:58.419Z,5.20
2022-08-28T12:56:29.998Z,5.97
2022-08-28T13:01:33.951Z,5.43
2022-08-28T13:04:19.084Z,4.80
2022-08-28T13:06:45.748Z,4.60
2022-08-28T13:09:24.559Z,4.82
2022-08-28T13:11:51.577Z,5.53
2022-08-28T13:14:37.593Z,4.85
2022-08-28T13:17:04.744Z,5.05
2022-08-28T13:19:33.077Z,4.85
2022-08-28T13:22:02.582Z,4.75
2022-08-28T13:24:39.490Z,4.95
2022-08-28T13:27:16.430Z,5.30
2022-08-28T13:30:20.760Z,5.20
2022-08-28T13:33:14.729Z,5.35
2022-08-28T13:35:42.237Z,4.82
2022-08-28T13:38:12.389Z,4.93
2022-08-28T13:40:57.974Z,4.40
2022-08-28T13:43:28.768Z,4.72
2022-08-28T13:45:55.589Z,4.30
2022-08-28T13:48:25.839Z,4.60
2022-08-28T13:51:10.840Z,4.25
2022-08-28T13:53:41.201Z,4.47
2022-08-28T13:56:07.703Z,4.60
2022-08-28T13:58:34.220Z,4.13
2022-08-28T14:01:01.761Z,4.63
2022-08-28T14:03:38.542Z,4.22
2022-08-28T14:06:12.214Z,4.85
2022-08-28T14:08:40.840Z,4.93
2022-08-28T14:11:08.302Z,3.97
2022-08-28T14:13:39.836Z,4.57
2022-08-28T14:16:08.044Z,4.40
2022-08-28T14:18:34.995Z,4.25
2022-08-28T14:21:05.159Z,4.85
2022-08-28T14:23:32.188Z,4.60
2022-08-28T14:25:58.708Z,4.65
2022-08-28T14:28:25.176Z,5.95
2022-08-28T14:30:52.741Z,4.90
2022-08-28T14:33:20.751Z,6.20
2022-08-28T14:35:48.842Z,5.05
2022-08-28T14:38:15.767Z,4.35
2022-08-28T14:40:44.436Z,4.32
2022-08-28T14:43:12.241Z,4.43
2022-08-28T14:45:44.660Z,4.70
2022-08-28T14:48:11.449Z,4.30
2022-08-28T14:50:44.038Z,5.03
2022-08-28T14:53:11.743Z,4.00
2022-08-28T14:55:41.004Z,5.15
2022-08-28T14:58:07.624Z,5.10
2022-08-28T15:00:39.560Z,4.75
2022-08-28T15:03:06.482Z,4.47
2022-08-28T15:05:34.059Z,4.00
2022-08-28T15:08:00.596Z,4.90
2022-08-28T15:10:27.071Z,4.65
2022-08-28T15:12:53.594Z,4.15
2022-08-28T15:15:22.899Z,4.32
2022-08-28T15:17:49.486Z,4.88
2022-08-28T15:20:16.075Z,4.20
2022-08-28T15:22:42.952Z,4.30
2022-08-28T15:25:09.680Z,3.83
2022-08-28T15:27:36.536Z,4.65
2022-08-28T15:30:04.631Z,4.28
2022-08-28T15:32:31.243Z,4.32
2022-08-28T15:34:57.795Z,4.25
2022-08-28T15:37:24.431Z,5.10
2022-08-28T15:40:09.469Z,4.60
2022-08-28T15:42:36.015Z,4.22
2022-08-28T15:45:02.499Z,4.05
2022-08-28T15:47:30.123Z,4.93
2022-08-28T15:49:57.095Z,4.72
2022-08-28T15:52:24.749Z,4.60
2022-08-28T15:54:51.343Z,4.85
2022-08-28T15:57:19.662Z,4.47
2022-08-28T15:59:50.649Z,4.40
2022-08-28T16:02:24.945Z,4.32
2022-08-28T16:04:52.567Z,4.07
2022-08-28T16:07:20.826Z,5.00
2022-08-28T16:09:47.834Z,4.47
2022-08-28T16:12:14.488Z,4.32
2022-08-28T16:14:41.151Z,5.05
2022-08-28T16:17:10.849Z,4.25
2022-08-28T16:19:39.683Z,4.20
2022-08-28T16:22:06.761Z,4.78
2022-08-28T16:24:33.670Z,4.47
2022-08-28T16:27:00.318Z,4.18
2022-08-28T16:29:26.814Z,4.70
2022-08-28T16:31:53.410Z,4.88
2022-08-28T16:34:20.244Z,4.05
2022-08-28T16:36:48.172Z,4.18
2022-08-28T16:39:14.873Z,4.28
2022-08-28T16:41:42.084Z,4.20
2022-08-28T16:44:09.008Z,4.55
2022-08-28T16:46:35.528Z,3.67
2022-08-28T16:49:02.555Z,3.95
2022-08-28T16:51:29.761Z,3.88
2022-08-28T16:53:56.533Z,3.78
2022-08-28T16:56:26.540Z,4.05
2022-08-28T16:58:53.412Z,3.95
2022-08-28T17:01:22.056Z,4.03
2022-08-28T17:03:51.870Z,3.60
2022-08-28T17:06:23.304Z,3.58
2022-08-28T17:08:55.927Z,3.72
2022-08-28T17:11:24.434Z,4.30
2022-08-28T17:13:51.134Z,4.28
2022-08-28T17:16:20.478Z,3.70
2022-08-28T17:18:48.377Z,3.40
2022-08-28T17:21:38.317Z,4.38
2022-08-28T17:24:05.074Z,4.30
2022-08-28T17:26:31.539Z,3.80
2022-08-28T17:28:58.130Z,4.10
2022-08-28T17:31:24.767Z,3.83
2022-08-28T17:33:51.534Z,3.42
2022-08-28T17:36:21.338Z,3.63
2022-08-28T17:39:00.213Z,2.75
2022-08-28T17:41:27.378Z,3.60
2022-08-28T17:43:53.982Z,3.15
2022-08-28T17:46:20.536Z,3.42
2022-08-28T17:48:54.491Z,3.75
2022-08-28T17:51:42.091Z,3.85
2022-08-28T17:54:10.174Z,3.63
2022-08-28T17:56:36.650Z,3.80
2022-08-28T17:59:04.200Z,3.05
2022-08-28T18:01:30.714Z,4.07
2022-08-28T18:04:01.058Z,3.25
2022-08-28T18:06:27.611Z,4.05
2022-08-28T18:08:54.491Z,3.92
2022-08-28T18:11:20.987Z,4.20
2022-08-28T18:13:47.597Z,3.80
2022-08-28T18:16:14.394Z,4.75
2022-08-28T18:18:41.856Z,4.30
2022-08-28T18:21:12.523Z,4.55
2022-08-28T18:23:39.865Z,4.53
2022-08-28T18:26:08.139Z,4.13
2022-08-28T18:28:36.113Z,3.75
2022-08-28T18:31:05.617Z,4.32
2022-08-28T18:33:33.322Z,4.57
2022-08-28T18:36:00.010Z,4.15
2022-08-28T18:38:34.976Z,3.92
2022-08-28T18:41:05.647Z,4.15
2022-08-28T18:43:32.318Z,4.90
2022-08-28T18:46:00.827Z,4.50
2022-08-28T18:48:27.845Z,4.20
2022-08-28T18:50:54.588Z,4.80
2022-08-28T18:53:22.289Z,5.28
2022-08-28T18:55:52.789Z,5.07
2022-08-28T19:00:47.024Z,4.82
2022-08-28T19:03:14.559Z,4.40
2022-08-28T19:05:41.724Z,4.70
2022-08-28T19:08:08.223Z,4.05
2022-08-28T19:10:36.865Z,4.28
2022-08-28T19:13:04.561Z,4.07
2022-08-28T19:15:31.861Z,4.10
2022-08-28T19:18:00.434Z,3.08
2022-08-28T19:20:28.232Z,4.07
2022-08-28T19:22:55.845Z,4.00
2022-08-28T19:25:28.399Z,4.45
2022-08-28T19:27:59.786Z,3.75
2022-08-28T19:30:28.951Z,4.10
2022-08-28T19:32:55.716Z,4.03
2022-08-28T19:35:24.479Z,4.00
2022-08-28T19:37:52.110Z,4.13
2022-08-28T19:40:19.915Z,3.95
2022-08-28T19:42:46.587Z,4.10
2022-08-28T19:45:14.862Z,3.75
2022-08-28T19:47:41.520Z,4.00
2022-08-28T19:50:10.339Z,4.15
2022-08-28T19:52:38.890Z,3.60
2022-08-28T19:55:06.721Z,3.45
2022-08-28T19:57:33.838Z,4.13
2022-08-28T20:00:00.773Z,4.22
2022-08-28T20:02:28.494Z,4.30
2022-08-28T20:04:55.502Z,4.40
2022-08-28T20:07:23.070Z,4.18
2022-08-28T20:09:49.513Z,4.68
2022-08-28T20:12:16.090Z,4.72
2022-08-28T20:14:42.606Z,4.28
2022-08-28T20:17:09.528Z,4.43
2022-08-28T20:19:36.356Z,4.32
2022-08-28T20:22:03.899Z,4.22
2022-08-28T20:24:30.534Z,4.85
2022-08-28T20:26:57.370Z,4.63
2022-08-28T20:29:24.234Z,4.28
2022-08-28T20:31:51.295Z,3.72
2022-08-28T20:34:19.293Z,4.07
2022-08-28T20:36:46.110Z,4.43
2022-08-28T20:39:12.737Z,4.40
2022-08-28T20:41:40.407Z,4.05
2022-08-28T20:44:09.237Z,4.30
2022-08-28T20:46:40.760Z,4.50
2022-08-28T20:49:10.409Z,3.70
2022-08-28T20:51:55.621Z,4.25
2022-08-28T20:54:33.630Z,3.80
2022-08-28T20:57:03.518Z,4.53
2022-08-28T20:59:39.413Z,4.60
2022-08-28T21:02:10.442Z,4.22
2022-08-28T21:04:38.846Z,4.18
2022-08-28T21:07:05.910Z,4.65
2022-08-28T21:09:42.360Z,4.38
2022-08-28T21:12:19.820Z,4.20
2022-08-28T21:14:51.552Z,4.43
2022-08-28T21:17:22.601Z,4.32
2022-08-28T21:19:57.389Z,4.50
2022-08-28T21:22:23.899Z,4.10
2022-08-28T21:24:50.398Z,4.55
2022-08-28T21:27:18.448Z,4.13
2022-08-28T21:29:45.800Z,4.30
2022-08-28T21:32:12.401Z,4.55
2022-08-28T21:34:38.945Z,4.43
2022-08-28T21:37:06.295Z,4.18
2022-08-28T21:39:32.812Z,3.50
2022-08-28T21:41:59.285Z,4.40
2022-08-28T21:44:25.768Z,4.30
2022-08-28T21:46:52.305Z,4.80
2022-08-28T21:49:18.972Z,4.88
2022-08-28T21:51:45.643Z,4.43
2022-08-28T21:54:12.132Z,4.43
2022-08-28T21:56:38.627Z,4.55
2022-08-28T21:59:05.139Z,3.95
2022-08-28T22:01:31.687Z,4.20
2022-08-28T22:03:58.394Z,4.47
2022-08-28T22:06:26.396Z,4.80
2022-08-28T22:08:53.866Z,4.78
2022-08-28T22:11:24.730Z,4.30
2022-08-28T22:13:52.494Z,5.10
2022-08-28T22:16:19.620Z,4.60
2022-08-28T22:18:46.701Z,4.25
2022-08-28T22:21:33.515Z,4.32
2022-08-28T22:24:00.136Z,5.63
2022-08-28T22:26:26.925Z,4.40
2022-08-28T22:28:53.608Z,3.97
2022-08-28T22:31:20.611Z,3.97
2022-08-28T22:33:47.944Z,4.70
2022-08-28T22:36:14.468Z,4.80
2022-08-28T22:38:41.402Z,4.03
2022-08-28T22:41:13.626Z,4.68
2022-08-28T22:43:40.229Z,3.65
2022-08-28T22:46:08.273Z,4.53
2022-08-28T22:48:35.505Z,5.30
2022-08-28T22:51:08.997Z,4.72
2022-08-28T22:53:36.234Z,3.80
2022-08-28T22:56:03.551Z,4.55
2022-08-28T22:58:32.657Z,4.45
2022-08-28T23:01:02.064Z,3.90
2022-08-28T23:03:28.754Z,3.75
2022-08-28T23:05:55.530Z,3.95
2022-08-28T23:08:22.041Z,4.57
2022-08-28T23:10:59.024Z,4.97
2022-08-28T23:13:26.268Z,4.32
2022-08-28T23:15:52.845Z,4.78
2022-08-28T23:18:20.310Z,4.03
2022-08-28T23:20:46.887Z,4.13
2022-08-28T23:23:17.080Z,4.57
2022-08-28T23:25:43.952Z,4.30
2022-08-28T23:28:10.485Z,3.55
2022-08-28T23:30:38.863Z,4.43
2022-08-28T23:33:08.406Z,4.53
2022-08-28T23:35:36.311Z,4.40
2022-08-28T23:38:03.582Z,4.40
2022-08-28T23:40:30.602Z,4.65
2022-08-28T23:42:58.030Z,4.40
2022-08-28T23:45:26.038Z,3.90
2022-08-28T23:47:53.948Z,3.50
2022-08-28T23:50:23.258Z,4.65
2022-08-28T23:52:50.478Z,4.10
2022-08-28T23:55:18.680Z,5.10
2022-08-28T23:57:45.735Z,4.82
